createdAt,value
2019-05-25T00:00:55.271Z,6.43
2019-05-25T00:03:59.296Z,6.27
2019-05-25T00:07:03.595Z,6.40
2019-05-25T00:10:08.405Z,6.10
2019-05-25T00:13:12.434Z,6.30
2019-05-25T00:16:16.485Z,6.23
2019-05-25T00:19:20.765Z,7.00
2019-05-25T00:22:25.112Z,6.53
2019-05-25T00:25:29.186Z,6.40
2019-05-25T00:28:33.462Z,6.63
2019-05-25T00:31:37.336Z,6.00
2019-05-25T00:34:41.881Z,6.33
2019-05-25T00:37:46.052Z,6.50
2019-05-25T00:40:50.074Z,6.40
2019-05-25T00:43:54.603Z,6.73
2019-05-25T00:46:58.556Z,6.40
2019-05-25T00:50:02.582Z,6.23
2019-05-25T00:53:06.569Z,6.50
2019-05-25T00:56:11.218Z,6.63
2019-05-25T00:59:15.314Z,7.17
2019-05-25T01:02:19.332Z,7.03
2019-05-25T01:05:23.673Z,6.30
2019-05-25T01:08:27.881Z,6.90
2019-05-25T01:11:32.115Z,7.10
2019-05-25T01:14:36.140Z,7.07
2019-05-25T01:17:40.451Z,7.10
2019-05-25T01:20:44.955Z,7.40
2019-05-25T01:23:49.208Z,7.77
2019-05-25T01:26:53.416Z,7.60
2019-05-25T01:29:57.944Z,8.20
2019-05-25T01:33:02.473Z,8.90
2019-05-25T01:36:06.572Z,7.30
2019-05-25T01:39:10.508Z,7.50
2019-05-25T01:42:14.794Z,8.00
2019-05-25T01:45:19.415Z,6.63
2019-05-25T01:48:23.352Z,7.03
2019-05-25T01:51:27.552Z,7.57
2019-05-25T01:54:31.819Z,6.93
2019-05-25T01:57:35.847Z,7.13
2019-05-25T02:00:40.354Z,8.07
2019-05-25T02:03:44.356Z,8.27
2019-05-25T02:06:48.370Z,8.20
2019-05-25T02:09:52.375Z,8.50
2019-05-25T02:12:56.819Z,11.77
2019-05-25T02:16:01.087Z,9.53
2019-05-25T02:19:05.576Z,8.77
2019-05-25T02:22:09.880Z,9.30
2019-05-25T02:25:18.356Z,12.30
2019-05-25T02:28:20.493Z,14.87
2019-05-25T02:31:24.828Z,16.23
2019-05-25T02:34:28.829Z,17.57
2019-05-25T02:37:33.064Z,14.40
2019-05-25T02:40:37.430Z,11.60
2019-05-25T02:43:41.433Z,12.93
2019-05-25T02:46:45.811Z,12.97
2019-05-25T02:49:50.546Z,10.27
2019-05-25T02:52:55.248Z,10.03
2019-05-25T02:55:59.189Z,11.23
2019-05-25T02:59:03.244Z,11.77
2019-05-25T03:02:07.545Z,12.13
2019-05-25T03:05:15.486Z,11.83
2019-05-25T03:08:19.597Z,12.80
2019-05-25T03:11:23.735Z,11.67
2019-05-25T03:14:28.102Z,12.30
2019-05-25T03:17:32.415Z,10.83
2019-05-25T03:20:36.739Z,11.03
2019-05-25T03:23:41.005Z,9.33
2019-05-25T03:26:47.478Z,10.13
2019-05-25T03:29:51.637Z,9.77
2019-05-25T03:32:55.918Z,9.67
2019-05-25T03:35:59.872Z,10.80
2019-05-25T03:39:05.865Z,11.50
2019-05-25T03:42:10.137Z,12.17
2019-05-25T03:45:14.162Z,11.63
2019-05-25T03:48:18.502Z,11.33
2019-05-25T03:51:22.800Z,13.00
2019-05-25T03:54:26.858Z,13.47
2019-05-25T03:57:31.167Z,11.77
2019-05-25T04:00:36.741Z,11.23
2019-05-25T04:03:40.647Z,10.10
2019-05-25T04:06:44.828Z,10.43
2019-05-25T04:09:49.042Z,10.57
2019-05-25T04:12:52.992Z,10.40
2019-05-25T04:15:57.280Z,11.20
2019-05-25T04:19:01.161Z,11.00
2019-05-25T04:22:05.619Z,11.03
2019-05-25T04:25:10.147Z,11.63
2019-05-25T04:28:14.360Z,12.77
2019-05-25T04:31:18.689Z,13.30
2019-05-25T04:34:22.728Z,13.23
2019-05-25T04:37:26.964Z,12.13
2019-05-25T04:40:30.953Z,14.17
2019-05-25T04:43:35.665Z,11.63
2019-05-25T04:46:39.925Z,10.97
2019-05-25T04:49:44.041Z,10.00
2019-05-25T04:52:48.223Z,10.20
2019-05-25T04:55:52.732Z,9.80
2019-05-25T04:58:57.269Z,9.47
2019-05-25T05:02:01.877Z,10.20
2019-05-25T05:05:07.092Z,10.33
2019-05-25T05:08:11.383Z,11.27
2019-05-25T05:11:15.712Z,12.30
2019-05-25T05:14:19.809Z,12.00
2019-05-25T05:17:23.744Z,10.67
2019-05-25T05:20:27.786Z,10.50
2019-05-25T05:23:32.274Z,11.20
2019-05-25T05:26:36.505Z,10.80
2019-05-25T05:29:40.977Z,11.00
2019-05-25T05:32:45.351Z,11.40
2019-05-25T05:35:50.439Z,11.87
2019-05-25T05:38:55.529Z,10.70
2019-05-25T05:42:01.053Z,9.67
2019-05-25T05:45:06.217Z,8.43
2019-05-25T05:48:12.537Z,8.47
2019-05-25T05:51:19.993Z,8.60
2019-05-25T05:54:24.143Z,8.73
2019-05-25T05:57:28.131Z,10.20
2019-05-25T06:00:32.172Z,10.60
2019-05-25T06:03:36.663Z,11.20
2019-05-25T06:06:41.053Z,11.47
2019-05-25T06:09:45.617Z,11.43
2019-05-25T06:12:50.246Z,11.37
2019-05-25T06:15:56.080Z,10.60
2019-05-25T06:19:00.434Z,10.40
2019-05-25T06:22:04.717Z,11.43
2019-05-25T06:25:09.586Z,12.27
2019-05-25T06:28:13.859Z,14.00
2019-05-25T06:31:18.283Z,13.47
2019-05-25T06:34:22.297Z,12.40
2019-05-25T06:37:26.869Z,12.13
2019-05-25T06:40:30.892Z,12.87
2019-05-25T06:43:35.149Z,12.47
2019-05-25T06:46:39.920Z,12.20
2019-05-25T06:49:44.171Z,12.20
2019-05-25T06:52:48.203Z,13.63
2019-05-25T06:55:52.154Z,14.33
2019-05-25T06:58:56.608Z,14.80
2019-05-25T07:02:00.684Z,14.43
2019-05-25T07:05:05.577Z,14.73
2019-05-25T07:08:09.894Z,14.07
2019-05-25T07:11:13.925Z,13.97
2019-05-25T07:14:18.236Z,14.77
2019-05-25T07:17:22.659Z,14.07
2019-05-25T07:20:27.462Z,13.77
2019-05-25T07:23:31.514Z,14.10
2019-05-25T07:26:35.551Z,14.27
2019-05-25T07:29:39.829Z,14.53
2019-05-25T07:32:44.090Z,14.43
2019-05-25T07:35:48.306Z,13.63
2019-05-25T07:38:52.377Z,14.13
2019-05-25T07:41:56.648Z,13.50
2019-05-25T07:45:00.957Z,13.63
2019-05-25T07:48:04.995Z,12.13
2019-05-25T07:51:09.418Z,12.13
2019-05-25T07:54:13.954Z,11.47
2019-05-25T07:57:18.247Z,11.40
2019-05-25T08:00:22.284Z,9.70
2019-05-25T08:03:26.739Z,10.77
2019-05-25T08:06:31.451Z,10.03
2019-05-25T08:09:36.120Z,10.20
2019-05-25T08:12:40.695Z,10.37
2019-05-25T08:15:45.097Z,9.97
2019-05-25T08:18:49.603Z,9.90
2019-05-25T08:21:54.647Z,8.97
2019-05-25T08:24:59.765Z,10.23
2019-05-25T08:28:05.430Z,9.23
2019-05-25T08:31:11.059Z,10.30
2019-05-25T08:34:18.242Z,9.90
2019-05-25T08:37:25.690Z,10.43
2019-05-25T08:40:30.053Z,10.67
2019-05-25T08:43:34.266Z,10.63
2019-05-25T08:46:38.678Z,10.10
2019-05-25T08:49:44.290Z,10.03
2019-05-25T08:52:50.832Z,10.47
2019-05-25T08:55:58.395Z,9.77
2019-05-25T08:59:07.197Z,10.83
2019-05-25T09:02:14.767Z,10.63
2019-05-25T09:05:20.398Z,10.07
2019-05-25T09:08:25.030Z,10.30
2019-05-25T09:11:29.105Z,10.50
2019-05-25T09:14:33.156Z,10.37
2019-05-25T09:17:37.262Z,10.27
2019-05-25T09:20:41.284Z,11.00
2019-05-25T09:23:48.594Z,10.20
2019-05-25T09:26:51.290Z,10.67
2019-05-25T09:29:55.324Z,10.27
2019-05-25T09:32:59.642Z,9.47
2019-05-25T09:36:03.681Z,9.57
2019-05-25T09:39:08.713Z,10.30
2019-05-25T09:42:12.658Z,10.00
2019-05-25T09:45:17.545Z,9.70
2019-05-25T09:48:20.329Z,10.40
2019-05-25T09:51:24.641Z,9.93
2019-05-25T09:54:29.082Z,9.67
2019-05-25T09:57:33.446Z,10.10
2019-05-25T10:00:40.380Z,9.40
2019-05-25T10:03:43.208Z,8.90
2019-05-25T10:06:47.485Z,9.33
2019-05-25T10:09:51.502Z,8.67
2019-05-25T10:12:55.572Z,8.30
2019-05-25T10:15:59.521Z,8.60
2019-05-25T10:19:03.874Z,7.30
2019-05-25T10:22:07.883Z,9.47
2019-05-25T10:25:13.335Z,8.17
2019-05-25T10:28:17.339Z,8.17
2019-05-25T10:31:21.593Z,7.80
2019-05-25T10:34:25.532Z,8.83
2019-05-25T10:37:29.612Z,8.33
2019-05-25T10:40:33.824Z,7.97
2019-05-25T10:43:37.845Z,7.70
2019-05-25T10:46:42.144Z,8.70
2019-05-25T10:49:46.465Z,9.27
2019-05-25T10:52:50.477Z,8.07
2019-05-25T10:55:54.841Z,8.40
2019-05-25T10:58:59.021Z,9.00
2019-05-25T11:02:03.135Z,7.93
2019-05-25T11:05:09.382Z,8.63
2019-05-25T11:08:13.639Z,7.80
2019-05-25T11:11:17.997Z,8.27
2019-05-25T11:14:22.054Z,7.90
2019-05-25T11:17:25.912Z,6.73
2019-05-25T11:20:29.938Z,7.83
2019-05-25T11:23:33.941Z,7.60
2019-05-25T11:26:38.553Z,7.20
2019-05-25T11:29:42.865Z,6.27
2019-05-25T11:32:46.874Z,7.00
2019-05-25T11:35:51.249Z,7.23
2019-05-25T11:38:55.280Z,6.80
2019-05-25T11:41:59.788Z,6.73
2019-05-25T11:45:04.138Z,6.37
2019-05-25T11:48:08.505Z,6.93
2019-05-25T11:51:12.780Z,5.80
2019-05-25T11:54:16.797Z,5.80
2019-05-25T11:57:21.137Z,4.73
2019-05-25T12:00:26.222Z,5.43
2019-05-25T12:03:30.233Z,6.00
2019-05-25T12:06:34.169Z,6.17
2019-05-25T12:09:38.445Z,5.60
2019-05-25T12:12:42.696Z,5.07
2019-05-25T12:15:46.877Z,5.30
2019-05-25T12:18:50.874Z,4.53
2019-05-25T12:21:55.124Z,5.10
2019-05-25T12:24:59.447Z,5.33
2019-05-25T12:28:03.535Z,5.60
2019-05-25T12:31:07.577Z,4.60
2019-05-25T12:34:11.805Z,5.07
2019-05-25T12:37:16.175Z,4.57
2019-05-25T12:40:20.864Z,4.60
2019-05-25T12:43:24.716Z,3.77
2019-05-25T12:46:28.691Z,4.00
2019-05-25T12:49:49.389Z,4.40
2019-05-25T12:52:38.758Z,4.40
2019-05-25T12:55:42.982Z,3.60
2019-05-25T12:58:49.558Z,4.60
2019-05-25T13:01:53.059Z,3.90
2019-05-25T13:04:57.507Z,5.00
2019-05-25T13:08:01.513Z,3.87
2019-05-25T13:11:09.388Z,4.07
2019-05-25T13:14:14.471Z,3.97
2019-05-25T13:17:17.310Z,4.63
2019-05-25T13:20:21.321Z,4.07
2019-05-25T13:23:25.555Z,3.87
2019-05-25T13:26:30.321Z,4.90
2019-05-25T13:29:34.565Z,5.37
2019-05-25T13:32:38.546Z,5.50
2019-05-25T13:35:42.602Z,5.50
2019-05-25T13:38:47.317Z,6.10
2019-05-25T13:41:51.377Z,5.33
2019-05-25T13:44:55.933Z,4.17
2019-05-25T13:47:59.923Z,4.80
2019-05-25T13:51:03.973Z,4.60
2019-05-25T13:54:08.289Z,5.50
2019-05-25T13:57:12.925Z,5.70
2019-05-25T14:00:17.434Z,6.07
2019-05-25T14:03:21.381Z,5.77
2019-05-25T14:06:25.455Z,4.50
2019-05-25T14:09:29.755Z,5.27
2019-05-25T14:12:33.711Z,5.30
2019-05-25T14:15:37.990Z,4.60
2019-05-25T14:18:41.994Z,4.00
2019-05-25T14:21:45.921Z,4.47
2019-05-25T14:24:50.088Z,4.93
2019-05-25T14:27:54.022Z,3.80
2019-05-25T14:30:58.034Z,3.77
2019-05-25T14:34:02.037Z,3.77
2019-05-25T14:37:06.287Z,2.60
2019-05-25T14:40:11.912Z,2.70
2019-05-25T14:43:16.472Z,2.30
2019-05-25T14:46:28.001Z,2.50
2019-05-25T14:49:27.224Z,2.70
2019-05-25T14:52:31.244Z,2.40
2019-05-25T14:55:35.665Z,2.50
2019-05-25T14:58:40.237Z,2.40
2019-05-25T15:01:59.591Z,2.30
2019-05-25T15:04:50.321Z,2.10
2019-05-25T15:07:54.702Z,2.20
2019-05-25T15:10:59.021Z,1.90
2019-05-25T15:14:03.375Z,1.50
2019-05-25T15:17:07.364Z,1.67
2019-05-25T15:20:12.348Z,1.60
2019-05-25T15:23:16.618Z,1.50
2019-05-25T15:26:20.565Z,1.50
2019-05-25T15:29:24.868Z,1.20
2019-05-25T15:32:28.968Z,1.10
2019-05-25T15:35:33.014Z,1.80
2019-05-25T15:38:36.886Z,2.10
2019-05-25T15:41:40.829Z,1.10
2019-05-25T15:44:45.958Z,3.53
2019-05-25T15:47:49.969Z,1.60
2019-05-25T15:50:53.967Z,1.20
2019-05-25T15:53:57.999Z,0.90
2019-05-25T15:57:02.019Z,6.17
2019-05-25T16:00:08.068Z,11.57
2019-05-25T16:03:12.134Z,3.83
2019-05-25T16:06:16.132Z,4.27
2019-05-25T16:09:20.403Z,2.20
2019-05-25T16:12:24.348Z,5.00
2019-05-25T16:15:28.562Z,2.47
2019-05-25T16:18:32.955Z,1.03
2019-05-25T16:21:37.500Z,1.60
2019-05-25T16:24:41.521Z,2.70
2019-05-25T16:27:46.165Z,17.87
2019-05-25T16:30:50.505Z,1.40
2019-05-25T16:33:54.542Z,3.23
2019-05-25T16:36:59.090Z,1.70
2019-05-25T16:40:03.442Z,1.20
2019-05-25T16:43:07.456Z,1.77
2019-05-25T16:46:11.537Z,2.77
2019-05-25T16:49:16.868Z,17.20
2019-05-25T16:52:20.812Z,3.30
2019-05-25T16:55:25.076Z,1.37
2019-05-25T16:58:29.672Z,1.20
2019-05-25T17:01:47.430Z,0.70
2019-05-25T17:04:39.429Z,0.70
2019-05-25T17:07:43.443Z,1.20
2019-05-25T17:10:47.441Z,0.87
2019-05-25T17:13:51.753Z,3.50
2019-05-25T17:16:55.899Z,2.27
2019-05-25T17:20:00.075Z,0.70
2019-05-25T17:23:04.442Z,1.00
2019-05-25T17:26:08.506Z,4.90
2019-05-25T17:29:12.823Z,1.20
2019-05-25T17:32:16.836Z,1.40
2019-05-25T17:35:20.871Z,0.73
2019-05-25T17:38:24.969Z,0.70
2019-05-25T17:41:28.993Z,0.90
2019-05-25T17:44:33.374Z,0.60
2019-05-25T17:47:37.693Z,0.60
2019-05-25T17:50:41.737Z,0.70
2019-05-25T17:53:46.003Z,0.73
2019-05-25T17:56:50.526Z,0.80
2019-05-25T17:59:54.802Z,0.90
2019-05-25T18:02:58.738Z,0.70
2019-05-25T18:06:02.759Z,0.90
2019-05-25T18:09:08.087Z,1.10
2019-05-25T18:12:12.089Z,1.00
2019-05-25T18:15:16.222Z,1.10
2019-05-25T18:18:21.228Z,1.00
2019-05-25T18:21:25.176Z,1.83
2019-05-25T18:24:29.566Z,1.10
2019-05-25T18:27:34.090Z,1.00
2019-05-25T18:30:38.376Z,1.80
2019-05-25T18:33:42.372Z,1.10
2019-05-25T18:36:46.664Z,1.60
2019-05-25T18:39:50.686Z,1.70
2019-05-25T18:42:54.550Z,1.60
2019-05-25T18:45:58.633Z,1.50
2019-05-25T18:49:02.942Z,1.97
2019-05-25T18:52:07.240Z,1.60
2019-05-25T18:55:11.478Z,1.57
2019-05-25T18:58:15.919Z,1.60
2019-05-25T19:01:19.951Z,1.53
2019-05-25T19:04:41.846Z,2.10
2019-05-25T19:07:30.100Z,2.40
2019-05-25T19:10:34.153Z,2.03
2019-05-25T19:13:38.816Z,1.70
2019-05-25T19:16:43.360Z,1.50
2019-05-25T19:19:47.688Z,1.73
2019-05-25T19:22:52.110Z,1.90
2019-05-25T19:25:56.432Z,2.00
2019-05-25T19:29:00.445Z,2.03
2019-05-25T19:32:04.552Z,1.80
2019-05-25T19:35:09.813Z,1.80
2019-05-25T19:38:13.759Z,1.90
2019-05-25T19:41:18.675Z,1.90
2019-05-25T19:44:23.292Z,2.10
2019-05-25T19:47:27.641Z,2.20
2019-05-25T19:50:31.660Z,2.50
2019-05-25T19:53:35.892Z,2.67
2019-05-25T19:56:39.914Z,3.17
2019-05-25T19:59:44.117Z,3.30
2019-05-25T20:02:48.638Z,3.57
2019-05-25T20:05:53.342Z,3.60
2019-05-25T20:08:57.670Z,2.80
2019-05-25T20:12:02.527Z,3.53
2019-05-25T20:15:07.136Z,2.80
2019-05-25T20:18:11.140Z,3.57
2019-05-25T20:21:15.404Z,3.00
2019-05-25T20:24:19.931Z,3.00
2019-05-25T20:27:24.285Z,2.87
2019-05-25T20:30:28.653Z,3.70
2019-05-25T20:33:35.000Z,3.30
2019-05-25T20:36:38.905Z,2.80
2019-05-25T20:39:42.940Z,3.40
2019-05-25T20:42:47.362Z,3.50
2019-05-25T20:45:51.328Z,4.00
2019-05-25T20:48:55.264Z,4.80
2019-05-25T20:51:59.445Z,4.70
2019-05-25T20:55:04.045Z,4.60
2019-05-25T20:58:08.138Z,4.30
2019-05-25T21:01:12.641Z,4.00
2019-05-25T21:04:17.008Z,3.87
2019-05-25T21:07:21.287Z,4.40
2019-05-25T21:10:25.182Z,4.70
2019-05-25T21:13:29.137Z,4.30
2019-05-25T21:16:33.903Z,4.60
2019-05-25T21:19:38.333Z,3.50
2019-05-25T21:22:42.559Z,3.30
2019-05-25T21:25:46.988Z,4.00
2019-05-25T21:28:51.388Z,4.00
2019-05-25T21:31:55.669Z,3.70
2019-05-25T21:34:59.828Z,4.60
2019-05-25T21:38:03.784Z,4.20
2019-05-25T21:41:08.677Z,4.50
2019-05-25T21:44:12.628Z,4.47
2019-05-25T21:47:16.599Z,4.20
2019-05-25T21:50:20.665Z,4.77
2019-05-25T21:53:24.696Z,4.73
2019-05-25T21:56:28.685Z,4.40
2019-05-25T21:59:33.001Z,4.67
2019-05-25T22:02:37.133Z,4.10
2019-05-25T22:05:41.397Z,4.60
2019-05-25T22:08:45.300Z,5.10
2019-05-25T22:11:49.292Z,4.40
2019-05-25T22:14:53.663Z,4.10
2019-05-25T22:17:57.933Z,4.53
2019-05-25T22:21:02.011Z,4.43
2019-05-25T22:24:06.047Z,4.70
2019-05-25T22:27:10.505Z,4.90
2019-05-25T22:30:15.172Z,4.50
2019-05-25T22:33:21.697Z,4.80
2019-05-25T22:36:39.210Z,5.00
2019-05-25T22:39:31.380Z,4.73
2019-05-25T22:42:35.434Z,4.80
2019-05-25T22:45:39.316Z,4.67
2019-05-25T22:48:49.087Z,5.07
2019-05-25T22:51:53.117Z,4.93
2019-05-25T22:54:57.095Z,4.77
2019-05-25T22:58:01.639Z,5.30
2019-05-25T23:01:05.655Z,4.67
2019-05-25T23:04:09.843Z,4.40
2019-05-25T23:07:14.213Z,4.93
2019-05-25T23:10:18.718Z,4.77
2019-05-25T23:13:22.924Z,5.30
2019-05-25T23:16:27.175Z,6.03
2019-05-25T23:19:31.458Z,4.87
2019-05-25T23:22:35.511Z,4.90
2019-05-25T23:25:39.788Z,4.70
2019-05-25T23:28:44.117Z,4.80
2019-05-25T23:31:47.975Z,5.20
2019-05-25T23:34:51.919Z,5.70
2019-05-25T23:37:56.261Z,5.40
2019-05-25T23:41:00.284Z,5.20
2019-05-25T23:44:04.288Z,5.20
2019-05-25T23:47:08.575Z,5.27
2019-05-25T23:50:13.136Z,5.27
2019-05-25T23:53:17.086Z,4.93
2019-05-25T23:56:21.013Z,5.20
2019-05-25T23:59:25.583Z,4.77
